OOMS/MCT METAR and TAF weather

Enter ICAO airport designator
Station Type Date Time Source
OOMS METAR 2021/02/27 01:50 UTC NOAA

OOMS 270150Z 27005KT CAVOK 22/16 Q1012 NOSIG


Station Type Date Time Source
OOMS Decoded METAR 2021/02/27 01:50 UTC NOAA

Seeb, International Airport, Oman (OOMS) 23-35N 058-17E 17M
Feb 26, 2021 - 08:50 PM EST / 2021.02.27 0150 UTC
Wind: from the W (270 degrees) at 6 MPH (5 KT):0
Visibility: greater than 7 mile(s):0
Temperature: 71 F (22 C)
Dew Point: 60 F (16 C)
Relative Humidity: 68%
Pressure (altimeter): 29.88 in. Hg (1012 hPa)
ob: OOMS 270150Z 27005KT CAVOK 22/16 Q1012 NOSIG
cycle: 2

Station Type Date Time Source
OOMS TAF 2021/02/26 18:03 UTC NOAA

TAF TAF OOMS 261700Z 2618/2724 25005KT 8000 FEW030 PROB30
TEMPO 2623/2705 SCT020
BECMG 2706/2708 35012KT
BECMG 2715/2717 24005KT NSC

Example: see airport list